createdAt,value
2024-04-06T00:00:03.931Z,15.12
2024-04-06T00:02:35.892Z,15.12
2024-04-06T00:05:10.565Z,15.12
2024-04-06T00:07:42.660Z,15.12
2024-04-06T00:10:13.701Z,15.12
2024-04-06T00:12:45.090Z,15.12
2024-04-06T00:15:16.699Z,15.12
2024-04-06T00:17:48.234Z,15.12
2024-04-06T00:20:19.407Z,15.12
2024-04-06T00:22:50.636Z,15.12
2024-04-06T00:25:21.975Z,15.12
2024-04-06T00:27:53.380Z,15.11
2024-04-06T00:30:24.734Z,15.11
2024-04-06T00:32:56.348Z,15.10
2024-04-06T00:35:27.685Z,15.09
2024-04-06T00:37:58.856Z,15.09
2024-04-06T00:40:30.084Z,15.08
2024-04-06T00:43:01.804Z,15.08
2024-04-06T00:45:33.009Z,15.07
2024-04-06T00:48:04.464Z,15.07
2024-04-06T00:50:36.506Z,15.07
2024-04-06T00:53:07.828Z,15.07
2024-04-06T00:55:39.589Z,15.07
2024-04-06T00:58:11.528Z,15.06
2024-04-06T01:00:42.643Z,15.06
2024-04-06T01:03:13.855Z,15.07
2024-04-06T01:05:45.521Z,15.07
2024-04-06T01:08:17.914Z,15.07
2024-04-06T01:10:49.138Z,15.06
2024-04-06T01:13:20.278Z,15.06
2024-04-06T01:15:51.703Z,15.06
2024-04-06T01:18:23.002Z,15.05
2024-04-06T01:20:55.419Z,15.06
2024-04-06T01:23:27.365Z,15.05
2024-04-06T01:25:58.502Z,15.05
2024-04-06T01:28:30.340Z,15.03
2024-04-06T01:31:01.682Z,15.02
2024-04-06T01:33:32.866Z,15.01
2024-04-06T01:36:04.327Z,15.01
2024-04-06T01:38:35.572Z,15.01
2024-04-06T01:41:07.263Z,15.01
2024-04-06T01:43:38.456Z,15.02
2024-04-06T01:46:10.330Z,15.03
2024-04-06T01:48:41.899Z,15.02
2024-04-06T01:51:13.204Z,15.01
2024-04-06T01:53:44.362Z,15.01
2024-04-06T01:56:15.627Z,15.00
2024-04-06T01:58:50.372Z,15.00
2024-04-06T02:01:21.648Z,15.00
2024-04-06T02:03:52.811Z,14.98
2024-04-06T02:06:24.439Z,14.98
2024-04-06T02:08:55.832Z,14.95
2024-04-06T02:11:27.297Z,14.93
2024-04-06T02:13:58.426Z,14.92
2024-04-06T02:16:30.058Z,14.91
2024-04-06T02:19:01.239Z,14.89
2024-04-06T02:21:32.651Z,14.88
2024-04-06T02:24:05.487Z,14.88
2024-04-06T02:26:37.340Z,14.86
2024-04-06T02:29:08.272Z,14.86
2024-04-06T02:31:39.340Z,14.85
2024-04-06T02:34:10.940Z,14.85
2024-04-06T02:36:42.295Z,14.85
2024-04-06T02:39:14.056Z,14.84
2024-04-06T02:41:45.046Z,14.83
2024-04-06T02:44:16.136Z,14.82
2024-04-06T02:46:47.235Z,14.80
2024-04-06T02:49:18.180Z,14.77
2024-04-06T02:51:49.177Z,14.76
2024-04-06T02:54:20.281Z,14.75
2024-04-06T02:56:51.221Z,14.74
2024-04-06T02:59:22.840Z,14.73
2024-04-06T03:01:54.224Z,14.71
2024-04-06T03:04:26.621Z,14.71
2024-04-06T03:06:57.708Z,14.69
2024-04-06T03:09:30.336Z,14.68
2024-04-06T03:12:01.429Z,14.65
2024-04-06T03:14:33.104Z,14.64
2024-04-06T03:17:04.867Z,14.62
2024-04-06T03:19:36.234Z,14.61
2024-04-06T03:22:08.649Z,14.58
2024-04-06T03:24:40.038Z,14.56
2024-04-06T03:27:11.320Z,14.53
2024-04-06T03:29:42.558Z,14.51
2024-04-06T03:32:13.652Z,14.50
2024-04-06T03:34:45.408Z,14.49
2024-04-06T03:37:16.855Z,14.49
2024-04-06T03:39:49.739Z,14.50
2024-04-06T03:42:20.668Z,14.50
2024-04-06T03:44:52.305Z,14.51
2024-04-06T03:47:23.617Z,14.52
2024-04-06T03:49:54.908Z,14.52
2024-04-06T03:52:26.065Z,14.53
2024-04-06T03:54:57.627Z,14.53
2024-04-06T03:57:28.802Z,14.52
2024-04-06T04:00:00.783Z,14.52
2024-04-06T04:02:32.825Z,14.49
2024-04-06T04:05:04.279Z,14.48
2024-04-06T04:07:36.689Z,14.46
2024-04-06T04:10:09.649Z,14.45
2024-04-06T04:12:40.751Z,14.44
2024-04-06T04:15:12.639Z,14.43
2024-04-06T04:17:43.929Z,14.40
2024-04-06T04:20:15.265Z,14.37
2024-04-06T04:22:46.373Z,14.36
2024-04-06T04:25:17.874Z,14.35
2024-04-06T04:27:49.109Z,14.34
2024-04-06T04:30:20.743Z,14.31
2024-04-06T04:32:52.461Z,14.28
2024-04-06T04:35:23.676Z,14.23
2024-04-06T04:37:55.423Z,14.19
2024-04-06T04:40:26.733Z,14.17
2024-04-06T04:42:58.002Z,14.17
2024-04-06T04:45:29.748Z,14.15
2024-04-06T04:48:01.118Z,14.14
2024-04-06T04:50:32.723Z,14.14
2024-04-06T04:53:04.094Z,14.12
2024-04-06T04:55:35.341Z,14.09
2024-04-06T04:58:07.192Z,14.08
2024-04-06T05:00:38.875Z,14.06
2024-04-06T05:03:10.319Z,14.04
2024-04-06T05:05:41.756Z,14.02
2024-04-06T05:08:13.788Z,14.00
2024-04-06T05:10:47.532Z,13.96
2024-04-06T05:13:18.756Z,13.93
2024-04-06T05:15:54.186Z,13.90
2024-04-06T05:18:25.786Z,13.82
2024-04-06T05:20:58.282Z,13.78
2024-04-06T05:23:29.680Z,13.74
2024-04-06T05:26:01.729Z,13.71
2024-04-06T05:28:33.450Z,13.69
2024-04-06T05:31:05.240Z,13.66
2024-04-06T05:33:37.156Z,13.64
2024-04-06T05:36:09.892Z,13.64
2024-04-06T05:38:41.289Z,13.63
2024-04-06T05:41:13.090Z,13.63
2024-04-06T05:43:44.414Z,13.61
2024-04-06T05:46:15.994Z,13.61
2024-04-06T05:48:47.290Z,13.60
2024-04-06T05:51:19.287Z,13.60
2024-04-06T05:53:50.693Z,13.60
2024-04-06T05:56:21.991Z,13.61
2024-04-06T05:58:53.330Z,13.62
2024-04-06T06:01:24.854Z,13.64
2024-04-06T06:03:56.144Z,13.67
2024-04-06T06:06:27.372Z,13.71
2024-04-06T06:08:58.492Z,13.75
2024-04-06T06:11:29.714Z,13.80
2024-04-06T06:14:01.341Z,13.86
2024-04-06T06:16:33.053Z,13.94
2024-04-06T06:19:04.218Z,14.02
2024-04-06T06:21:35.642Z,14.09
2024-04-06T06:24:07.955Z,14.19
2024-04-06T06:26:39.171Z,14.29
2024-04-06T06:29:10.241Z,14.38
2024-04-06T06:31:41.731Z,14.45
2024-04-06T06:34:12.879Z,14.52
2024-04-06T06:41:54.674Z,14.71
2024-04-06T06:44:25.854Z,14.75
2024-04-06T06:46:57.039Z,14.80
2024-04-06T06:49:28.402Z,14.85
2024-04-06T06:52:00.044Z,14.91
2024-04-06T06:54:31.167Z,14.96
2024-04-06T06:57:02.329Z,15.00
2024-04-06T07:02:07.765Z,15.09
2024-04-06T07:04:38.865Z,15.14
2024-04-06T07:07:10.586Z,15.17
2024-04-06T07:09:42.282Z,15.21
2024-04-06T07:12:13.324Z,15.25
2024-04-06T07:14:44.620Z,15.29
2024-04-06T07:17:17.306Z,15.34
2024-04-06T07:19:48.531Z,15.38
2024-04-06T07:22:20.076Z,15.44
2024-04-06T07:24:51.130Z,15.51
2024-04-06T07:27:22.462Z,15.57
2024-04-06T07:29:54.178Z,15.64
2024-04-06T07:32:25.282Z,15.69
2024-04-06T07:34:56.462Z,15.74
2024-04-06T07:37:27.591Z,15.80
2024-04-06T07:39:59.202Z,15.86
2024-04-06T07:42:30.579Z,15.92
2024-04-06T07:45:01.965Z,16.00
2024-04-06T07:47:33.120Z,16.06
2024-04-06T07:50:04.470Z,16.14
2024-04-06T07:52:35.732Z,16.21
2024-04-06T07:55:08.090Z,16.29
2024-04-06T07:57:39.758Z,16.36
2024-04-06T08:00:12.730Z,16.44
2024-04-06T08:02:44.929Z,16.51
2024-04-06T08:05:16.066Z,16.58
2024-04-06T08:07:47.173Z,16.65
2024-04-06T08:10:20.398Z,16.72
2024-04-06T08:12:54.770Z,16.78
2024-04-06T08:15:27.507Z,16.85
2024-04-06T08:18:00.180Z,16.92
2024-04-06T08:20:31.486Z,17.00
2024-04-06T08:23:03.350Z,17.07
2024-04-06T08:25:34.179Z,17.15
2024-04-06T08:28:06.483Z,17.22
2024-04-06T08:30:37.539Z,17.29
2024-04-06T08:33:09.286Z,17.35
2024-04-06T08:35:40.393Z,17.41
2024-04-06T08:38:11.625Z,17.47
2024-04-06T08:40:44.126Z,17.53
2024-04-06T08:43:15.357Z,17.58
2024-04-06T08:45:47.130Z,17.63
2024-04-06T08:48:21.152Z,17.71
2024-04-06T08:50:53.632Z,17.79
2024-04-06T08:53:24.996Z,17.87
2024-04-06T08:55:57.952Z,17.95
2024-04-06T08:58:29.639Z,18.04
2024-04-06T09:01:01.770Z,18.15
2024-04-06T09:03:33.448Z,18.27
2024-04-06T09:06:05.379Z,18.32
2024-04-06T09:08:40.439Z,18.37
2024-04-06T09:11:13.431Z,18.41
2024-04-06T09:13:44.561Z,18.47
2024-04-06T09:16:17.554Z,18.55
2024-04-06T09:18:48.606Z,18.65
2024-04-06T09:21:20.737Z,18.74
2024-04-06T09:23:54.875Z,18.81
2024-04-06T09:26:29.012Z,18.87
2024-04-06T09:29:00.983Z,18.93
2024-04-06T09:31:32.491Z,18.99
2024-04-06T09:34:03.781Z,19.07
2024-04-06T09:36:41.305Z,19.13
2024-04-06T09:39:13.861Z,19.21
2024-04-06T09:41:44.922Z,19.28
2024-04-06T09:44:16.200Z,19.38
2024-04-06T09:46:48.163Z,19.43
2024-04-06T09:49:20.606Z,19.51
2024-04-06T09:51:51.583Z,19.57
2024-04-06T09:54:23.116Z,19.59
2024-04-06T09:56:55.268Z,19.60
2024-04-06T09:59:29.285Z,19.63
2024-04-06T10:02:00.609Z,19.69
2024-04-06T10:04:37.467Z,19.73
2024-04-06T10:07:08.892Z,19.75
2024-04-06T10:09:39.891Z,19.76
2024-04-06T10:12:12.596Z,19.78
2024-04-06T10:14:49.397Z,19.81
2024-04-06T10:17:19.351Z,19.82
2024-04-06T10:19:51.624Z,19.89
2024-04-06T10:22:28.102Z,19.96
2024-04-06T10:25:04.503Z,20.02
2024-04-06T10:27:41.115Z,20.09
2024-04-06T10:30:13.040Z,20.14
2024-04-06T10:32:45.284Z,20.16
2024-04-06T10:35:16.755Z,20.16
2024-04-06T10:37:48.721Z,20.16
2024-04-06T10:40:21.015Z,20.16
2024-04-06T10:42:52.558Z,20.20
2024-04-06T10:45:24.329Z,20.28
2024-04-06T10:47:55.478Z,20.35
2024-04-06T10:50:26.629Z,20.42
2024-04-06T10:52:59.260Z,20.49
2024-04-06T10:55:32.938Z,20.55
2024-04-06T10:58:04.169Z,20.60
2024-04-06T11:00:37.813Z,20.66
2024-04-06T11:03:09.911Z,20.73
2024-04-06T11:05:41.524Z,20.77
2024-04-06T11:08:13.056Z,20.77
2024-04-06T11:10:44.360Z,20.77
2024-04-06T11:13:15.676Z,20.76
2024-04-06T11:15:48.529Z,20.79
2024-04-06T11:18:19.661Z,20.84
2024-04-06T11:20:51.152Z,20.88
2024-04-06T11:23:22.980Z,20.94
2024-04-06T11:25:55.347Z,21.00
2024-04-06T11:28:26.754Z,21.09
2024-04-06T11:30:59.510Z,21.19
2024-04-06T11:33:30.800Z,21.32
2024-04-06T11:36:01.948Z,21.46
2024-04-06T11:38:33.189Z,21.57
2024-04-06T11:41:04.610Z,21.67
2024-04-06T11:43:36.083Z,21.79
2024-04-06T11:46:07.559Z,21.89
2024-04-06T11:48:38.807Z,21.97
2024-04-06T11:51:09.940Z,22.05
2024-04-06T11:53:43.840Z,22.13
2024-04-06T11:56:18.520Z,22.19
2024-04-06T11:58:51.412Z,22.25
2024-04-06T12:01:22.600Z,22.33
2024-04-06T12:03:53.871Z,22.39
2024-04-06T12:06:25.366Z,22.47
2024-04-06T12:08:56.777Z,22.54
2024-04-06T12:11:28.775Z,22.60
2024-04-06T12:14:00.167Z,22.66
2024-04-06T12:16:31.311Z,22.72
2024-04-06T12:19:02.843Z,22.78
2024-04-06T12:21:34.025Z,22.83
2024-04-06T12:24:05.650Z,22.93
2024-04-06T12:26:37.142Z,23.05
2024-04-06T12:29:10.318Z,23.15
2024-04-06T12:31:42.135Z,23.25
2024-04-06T12:34:13.321Z,23.33
2024-04-06T12:36:44.699Z,23.43
2024-04-06T12:39:15.914Z,23.54
2024-04-06T12:41:47.365Z,23.65
2024-04-06T12:44:18.643Z,23.74
2024-04-06T12:46:49.809Z,23.81
2024-04-06T12:49:21.253Z,23.86
2024-04-06T12:51:52.780Z,23.94
2024-04-06T12:54:23.902Z,24.05
2024-04-06T12:57:09.196Z,24.19
2024-04-06T12:59:40.895Z,24.35
2024-04-06T13:02:12.652Z,24.47
2024-04-06T13:04:43.736Z,24.58
2024-04-06T13:07:14.897Z,24.66
2024-04-06T13:09:54.928Z,24.77
2024-04-06T13:12:31.402Z,24.87
2024-04-06T13:15:05.936Z,24.96
2024-04-06T13:17:37.816Z,25.00
2024-04-06T13:20:20.192Z,25.01
2024-04-06T13:22:51.220Z,24.98
2024-04-06T13:25:22.468Z,24.94
2024-04-06T13:27:54.103Z,24.87
2024-04-06T13:30:26.153Z,24.81
2024-04-06T13:32:58.011Z,24.76
2024-04-06T13:35:28.935Z,24.74
2024-04-06T13:37:59.958Z,24.74
2024-04-06T13:40:30.807Z,24.75
2024-04-06T13:43:01.737Z,24.79
2024-04-06T13:45:32.815Z,24.84
2024-04-06T13:48:14.401Z,24.90
2024-04-06T13:50:47.100Z,24.97
2024-04-06T13:53:18.548Z,25.10
2024-04-06T13:55:49.619Z,25.24
2024-04-06T13:58:21.225Z,25.37
2024-04-06T14:00:52.174Z,25.51
2024-04-06T14:03:23.221Z,25.64
2024-04-06T14:05:54.209Z,25.75
2024-04-06T14:08:26.939Z,25.88
2024-04-06T14:10:57.699Z,25.96
2024-04-06T14:13:32.095Z,26.02
2024-04-06T14:16:05.390Z,26.09
2024-04-06T14:18:37.768Z,26.17
2024-04-06T14:21:08.674Z,26.26
2024-04-06T14:23:40.580Z,26.34
2024-04-06T14:26:12.730Z,26.40
2024-04-06T14:28:43.867Z,26.48
2024-04-06T14:31:17.934Z,26.58
2024-04-06T14:33:50.170Z,26.69
2024-04-06T14:36:21.214Z,26.76
2024-04-06T14:38:52.249Z,26.81
2024-04-06T14:41:23.536Z,26.87
2024-04-06T14:43:54.613Z,26.95
2024-04-06T14:46:26.123Z,27.07
2024-04-06T14:48:57.114Z,27.14
2024-04-06T14:51:28.307Z,27.20
2024-04-06T14:53:59.499Z,27.24
2024-04-06T14:56:30.365Z,27.23
2024-04-06T14:59:01.260Z,27.16
2024-04-06T15:01:32.245Z,27.11
2024-04-06T15:04:03.727Z,27.10
2024-04-06T15:06:34.696Z,27.11
2024-04-06T15:09:08.475Z,27.10
2024-04-06T15:11:39.483Z,27.09
2024-04-06T15:14:10.833Z,27.06
2024-04-06T15:16:41.833Z,27.00
2024-04-06T15:19:13.180Z,26.95
2024-04-06T15:21:44.069Z,26.94
2024-04-06T15:24:16.049Z,26.96
2024-04-06T15:26:47.490Z,26.97
2024-04-06T15:29:18.457Z,26.94
2024-04-06T15:31:49.424Z,26.91
2024-04-06T15:34:20.597Z,26.87
2024-04-06T15:36:51.574Z,26.81
2024-04-06T15:39:27.784Z,26.73
2024-04-06T15:41:59.400Z,26.62
2024-04-06T15:44:30.369Z,26.52
2024-04-06T15:47:08.348Z,26.45
2024-04-06T15:49:39.292Z,26.38
2024-04-06T15:52:11.227Z,26.30
2024-04-06T15:54:42.084Z,26.20
2024-04-06T15:57:13.040Z,26.12
2024-04-06T15:59:43.941Z,26.05
2024-04-06T16:02:15.020Z,25.98
2024-04-06T16:04:46.451Z,25.92
2024-04-06T16:07:17.436Z,25.86
2024-04-06T16:09:48.508Z,25.81
2024-04-06T16:12:19.584Z,25.73
2024-04-06T16:14:50.634Z,25.63
2024-04-06T16:17:21.746Z,25.56
2024-04-06T16:19:52.932Z,25.49
2024-04-06T16:22:24.378Z,25.40
2024-04-06T16:24:55.614Z,25.31
2024-04-06T16:27:26.680Z,25.23
2024-04-06T16:29:57.708Z,25.12
2024-04-06T16:32:28.681Z,25.03
2024-04-06T16:35:00.246Z,24.93
2024-04-06T16:37:32.058Z,24.85
2024-04-06T16:40:05.624Z,24.76
2024-04-06T16:42:36.648Z,24.68
2024-04-06T16:45:09.468Z,24.60
2024-04-06T16:47:40.649Z,24.52
2024-04-06T16:50:11.915Z,24.43
2024-04-06T16:52:42.981Z,24.34
2024-04-06T16:55:14.400Z,24.27
2024-04-06T16:57:45.983Z,24.18
2024-04-06T17:00:18.798Z,24.10
2024-04-06T17:02:49.878Z,24.01
2024-04-06T17:05:22.376Z,23.94
2024-04-06T17:07:53.527Z,23.85
2024-04-06T17:10:25.011Z,23.76
2024-04-06T17:12:57.172Z,23.69
2024-04-06T17:15:28.763Z,23.64
2024-04-06T17:17:59.907Z,23.58
2024-04-06T17:20:31.433Z,23.51
2024-04-06T17:23:02.756Z,23.45
2024-04-06T17:25:33.790Z,23.39
2024-04-06T17:28:06.041Z,23.34
2024-04-06T17:30:38.016Z,23.29
2024-04-06T17:33:09.212Z,23.24
2024-04-06T17:35:40.052Z,23.19
2024-04-06T17:38:11.057Z,23.14
2024-04-06T17:40:42.431Z,23.07
2024-04-06T17:43:14.064Z,23.01
2024-04-06T17:45:44.936Z,22.93
2024-04-06T17:48:16.387Z,22.85
2024-04-06T17:53:40.546Z,22.61
2024-04-06T17:56:11.574Z,22.51
2024-04-06T17:58:42.539Z,22.40
2024-04-06T18:01:13.611Z,22.30
2024-04-06T18:03:44.653Z,22.20
2024-04-06T18:06:15.761Z,22.09
2024-04-06T18:08:47.654Z,21.97
2024-04-06T18:11:19.166Z,21.85
2024-04-06T18:13:50.566Z,21.73
2024-04-06T18:16:22.862Z,21.58
2024-04-06T18:18:53.983Z,21.40
2024-04-06T18:21:25.223Z,21.23
2024-04-06T18:23:57.238Z,21.06
2024-04-06T18:26:28.507Z,20.89
2024-04-06T18:28:59.871Z,20.73
2024-04-06T18:31:30.888Z,20.57
2024-04-06T18:34:01.992Z,20.41
2024-04-06T18:36:33.348Z,20.26
2024-04-06T18:39:04.857Z,20.11
2024-04-06T18:41:36.418Z,19.96
2024-04-06T18:44:07.931Z,19.82
2024-04-06T18:46:39.319Z,19.67
2024-04-06T18:49:10.757Z,19.51
2024-04-06T18:51:42.348Z,19.40
2024-04-06T18:54:23.482Z,19.31
2024-04-06T18:56:59.144Z,19.21
2024-04-06T18:59:30.384Z,19.10
2024-04-06T19:02:01.458Z,19.01
2024-04-06T19:04:32.523Z,18.92
2024-04-06T19:07:04.156Z,18.82
2024-04-06T19:09:35.684Z,18.73
2024-04-06T19:12:08.510Z,18.64
2024-04-06T19:14:40.181Z,18.54
2024-04-06T19:17:11.454Z,18.45
2024-04-06T19:19:43.476Z,18.34
2024-04-06T19:22:14.977Z,18.25
2024-04-06T19:24:46.578Z,18.13
2024-04-06T19:27:17.476Z,18.05
2024-04-06T19:29:49.107Z,17.97
2024-04-06T19:32:20.370Z,17.84
2024-04-06T19:34:52.301Z,17.71
2024-04-06T19:37:24.571Z,17.60
2024-04-06T19:39:56.367Z,17.54
2024-04-06T19:42:27.786Z,17.45
2024-04-06T19:44:58.714Z,17.36
2024-04-06T19:47:29.600Z,17.27
2024-04-06T19:50:00.923Z,17.20
2024-04-06T19:52:32.526Z,17.14
2024-04-06T19:55:07.357Z,17.09
2024-04-06T19:57:39.814Z,16.98
2024-04-06T20:00:12.388Z,16.90
2024-04-06T20:02:44.364Z,16.79
2024-04-06T20:05:16.755Z,16.71
2024-04-06T20:07:47.750Z,16.64
2024-04-06T20:10:19.488Z,16.58
2024-04-06T20:12:50.608Z,16.51
2024-04-06T20:15:21.677Z,16.47
2024-04-06T20:17:53.253Z,16.42
2024-04-06T20:20:25.680Z,16.38
2024-04-06T20:23:11.185Z,16.35
2024-04-06T20:25:56.638Z,16.30
2024-04-06T20:28:27.894Z,16.24
2024-04-06T20:31:00.636Z,16.17
2024-04-06T20:33:33.080Z,16.10
2024-04-06T20:36:05.525Z,16.02
2024-04-06T20:38:37.497Z,15.96
2024-04-06T20:41:09.373Z,15.89
2024-04-06T20:43:40.360Z,15.85
2024-04-06T20:46:11.934Z,15.78
2024-04-06T20:48:43.097Z,15.74
2024-04-06T20:51:14.760Z,15.68
2024-04-06T20:53:46.051Z,15.62
2024-04-06T20:56:19.289Z,15.57
2024-04-06T20:58:50.118Z,15.53
2024-04-06T21:01:21.449Z,15.48
2024-04-06T21:03:52.963Z,15.43
2024-04-06T21:06:24.291Z,15.40
2024-04-06T21:08:55.762Z,15.33
2024-04-06T21:11:28.595Z,15.22
2024-04-06T21:13:59.496Z,15.17
2024-04-06T21:16:31.329Z,15.14
2024-04-06T21:19:02.565Z,15.11
2024-04-06T21:21:34.049Z,15.08
2024-04-06T21:24:05.213Z,15.04
2024-04-06T21:26:39.566Z,15.00
2024-04-06T21:29:10.644Z,14.95
2024-04-06T21:31:42.049Z,14.90
2024-04-06T21:34:13.610Z,14.86
2024-04-06T21:36:44.803Z,14.85
2024-04-06T21:39:16.650Z,14.82
2024-04-06T21:41:49.654Z,14.72
2024-04-06T21:44:20.713Z,14.63
2024-04-06T21:46:51.597Z,14.60
2024-04-06T21:49:22.389Z,14.59
2024-04-06T21:51:52.828Z,14.54
2024-04-06T21:54:25.239Z,14.50
2024-04-06T21:56:56.105Z,14.46
2024-04-06T21:59:27.135Z,14.39
2024-04-06T22:01:59.341Z,14.32
2024-04-06T22:04:31.657Z,14.27
2024-04-06T22:07:03.139Z,14.22
2024-04-06T22:09:34.590Z,14.19
2024-04-06T22:12:08.183Z,14.16
2024-04-06T22:14:39.166Z,14.16
2024-04-06T22:17:10.552Z,14.14
2024-04-06T22:19:41.972Z,14.11
2024-04-06T22:22:13.602Z,14.09
2024-04-06T22:24:45.766Z,14.08
2024-04-06T22:27:16.814Z,14.07
2024-04-06T22:29:49.180Z,14.06
2024-04-06T22:32:20.717Z,14.04
2024-04-06T22:34:52.000Z,14.02
2024-04-06T22:37:23.235Z,14.01
2024-04-06T22:39:54.116Z,13.98
2024-04-06T22:42:24.042Z,13.90
2024-04-06T22:44:54.943Z,13.83
2024-04-06T22:47:26.183Z,13.74
2024-04-06T22:49:57.508Z,13.70
2024-04-06T22:52:28.449Z,13.68
2024-04-06T22:54:59.874Z,13.64
2024-04-06T22:57:30.804Z,13.60
2024-04-06T23:00:02.237Z,13.57
2024-04-06T23:02:35.252Z,13.55
2024-04-06T23:05:07.371Z,13.54
2024-04-06T23:07:39.080Z,13.53
2024-04-06T23:10:10.844Z,13.52
2024-04-06T23:12:41.947Z,13.51
2024-04-06T23:15:13.095Z,13.50
2024-04-06T23:17:43.946Z,13.45
2024-04-06T23:20:14.996Z,13.44
2024-04-06T23:22:46.176Z,13.43
2024-04-06T23:25:17.447Z,13.42
2024-04-06T23:27:48.431Z,13.40
2024-04-06T23:30:19.419Z,13.38
2024-04-06T23:32:50.321Z,13.36
2024-04-06T23:35:21.345Z,13.33
2024-04-06T23:37:52.231Z,13.31
2024-04-06T23:40:24.496Z,13.29
2024-04-06T23:42:55.534Z,13.27
2024-04-06T23:45:26.936Z,13.24
2024-04-06T23:47:58.178Z,13.18
2024-04-06T23:50:29.459Z,13.13
2024-04-06T23:53:00.471Z,13.10
2024-04-06T23:55:31.548Z,13.06
2024-04-06T23:58:02.755Z,13.00
